sensor_id;sensor_type;location;lat;lon;timestamp;temperature;humidity
318;DHT22;146;53.448;10.228;2022-08-03T00:01:23;21.60;1.00
318;DHT22;146;53.448;10.228;2022-08-03T00:03:50;21.60;1.00
318;DHT22;146;53.448;10.228;2022-08-03T00:06:17;21.70;1.00
318;DHT22;146;53.448;10.228;2022-08-03T00:08:44;21.70;1.00
318;DHT22;146;53.448;10.228;2022-08-03T00:11:10;21.70;1.00
318;DHT22;146;53.448;10.228;2022-08-03T00:13:38;21.60;1.00
318;DHT22;146;53.448;10.228;2022-08-03T00:16:06;21.60;1.00
318;DHT22;146;53.448;10.228;2022-08-03T00:18:33;21.60;1.00
318;DHT22;146;53.448;10.228;2022-08-03T00:21:00;21.60;1.00
318;DHT22;146;53.448;10.228;2022-08-03T00:23:27;21.50;1.00
318;DHT22;146;53.448;10.228;2022-08-03T00:25:54;21.40;1.00
318;DHT22;146;53.448;10.228;2022-08-03T00:28:21;21.30;1.00
318;DHT22;146;53.448;10.228;2022-08-03T00:30:48;21.30;1.00
318;DHT22;146;53.448;10.228;2022-08-03T00:33:16;21.30;1.00
318;DHT22;146;53.448;10.228;2022-08-03T00:35:43;21.30;1.00
318;DHT22;146;53.448;10.228;2022-08-03T00:38:10;21.20;1.00
318;DHT22;146;53.448;10.228;2022-08-03T00:40:37;21.20;1.00
318;DHT22;146;53.448;10.228;2022-08-03T00:43:06;21.20;1.00
318;DHT22;146;53.448;10.228;2022-08-03T00:45:35;21.20;1.00
318;DHT22;146;53.448;10.228;2022-08-03T00:48:03;21.10;1.00
318;DHT22;146;53.448;10.228;2022-08-03T00:50:34;21.10;1.00
318;DHT22;146;53.448;10.228;2022-08-03T00:53:03;21.10;1.00
318;DHT22;146;53.448;10.228;2022-08-03T00:55:30;21.00;1.00
318;DHT22;146;53.448;10.228;2022-08-03T00:57:57;21.00;1.00
318;DHT22;146;53.448;10.228;2022-08-03T01:00:26;20.90;1.00
318;DHT22;146;53.448;10.228;2022-08-03T01:02:53;21.00;1.00
318;DHT22;146;53.448;10.228;2022-08-03T01:05:20;21.00;1.00
318;DHT22;146;53.448;10.228;2022-08-03T01:07:58;20.90;1.00
318;DHT22;146;53.448;10.228;2022-08-03T01:10:31;20.90;1.00
318;DHT22;146;53.448;10.228;2022-08-03T01:13:05;20.90;1.00
318;DHT22;146;53.448;10.228;2022-08-03T01:15:39;20.90;1.00
318;DHT22;146;53.448;10.228;2022-08-03T01:18:11;20.80;1.00
318;DHT22;146;53.448;10.228;2022-08-03T01:20:42;20.80;1.00
318;DHT22;146;53.448;10.228;2022-08-03T01:26:16;20.70;1.00
318;DHT22;146;53.448;10.228;2022-08-03T01:28:57;20.70;1.00
318;DHT22;146;53.448;10.228;2022-08-03T01:31:30;20.60;1.00
318;DHT22;146;53.448;10.228;2022-08-03T01:34:01;20.60;1.00
318;DHT22;146;53.448;10.228;2022-08-03T01:36:32;20.60;1.00
318;DHT22;146;53.448;10.228;2022-08-03T01:39:02;20.50;1.00
318;DHT22;146;53.448;10.228;2022-08-03T01:41:32;20.50;1.00
318;DHT22;146;53.448;10.228;2022-08-03T01:44:02;20.50;1.00
318;DHT22;146;53.448;10.228;2022-08-03T01:46:34;20.50;1.00
318;DHT22;146;53.448;10.228;2022-08-03T01:49:02;20.50;1.00
318;DHT22;146;53.448;10.228;2022-08-03T01:51:32;20.50;1.00
318;DHT22;146;53.448;10.228;2022-08-03T01:53:59;20.50;1.00
318;DHT22;146;53.448;10.228;2022-08-03T01:56:28;20.50;1.00
318;DHT22;146;53.448;10.228;2022-08-03T01:58:57;20.40;1.00
318;DHT22;146;53.448;10.228;2022-08-03T02:01:27;20.30;1.00
318;DHT22;146;53.448;10.228;2022-08-03T02:03:57;20.30;1.00
318;DHT22;146;53.448;10.228;2022-08-03T02:06:25;20.30;1.00
318;DHT22;146;53.448;10.228;2022-08-03T02:08:53;20.30;1.00
318;DHT22;146;53.448;10.228;2022-08-03T02:11:21;20.20;1.00
318;DHT22;146;53.448;10.228;2022-08-03T02:13:50;20.20;1.00
318;DHT22;146;53.448;10.228;2022-08-03T02:16:18;20.20;1.00
318;DHT22;146;53.448;10.228;2022-08-03T02:18:46;20.10;1.00
318;DHT22;146;53.448;10.228;2022-08-03T02:21:15;20.20;1.00
318;DHT22;146;53.448;10.228;2022-08-03T02:23:41;20.10;1.00
318;DHT22;146;53.448;10.228;2022-08-03T02:26:13;20.10;1.00
318;DHT22;146;53.448;10.228;2022-08-03T02:28:43;20.00;1.00
318;DHT22;146;53.448;10.228;2022-08-03T02:31:13;20.10;1.00
318;DHT22;146;53.448;10.228;2022-08-03T02:33:43;20.00;1.00
318;DHT22;146;53.448;10.228;2022-08-03T02:36:12;20.00;1.00
318;DHT22;146;53.448;10.228;2022-08-03T02:38:43;20.00;1.00
318;DHT22;146;53.448;10.228;2022-08-03T02:41:15;20.00;1.00
318;DHT22;146;53.448;10.228;2022-08-03T02:43:44;20.00;1.00
318;DHT22;146;53.448;10.228;2022-08-03T02:46:17;20.00;1.00
318;DHT22;146;53.448;10.228;2022-08-03T02:48:45;19.90;1.00
318;DHT22;146;53.448;10.228;2022-08-03T02:51:16;19.90;1.00
318;DHT22;146;53.448;10.228;2022-08-03T02:53:46;19.90;1.00
318;DHT22;146;53.448;10.228;2022-08-03T02:56:14;19.90;1.00
318;DHT22;146;53.448;10.228;2022-08-03T02:58:43;19.90;1.00
318;DHT22;146;53.448;10.228;2022-08-03T03:01:11;19.90;1.00
318;DHT22;146;53.448;10.228;2022-08-03T03:03:39;19.80;1.00
318;DHT22;146;53.448;10.228;2022-08-03T03:06:07;19.80;1.00
318;DHT22;146;53.448;10.228;2022-08-03T03:08:34;19.80;1.00
318;DHT22;146;53.448;10.228;2022-08-03T03:11:03;19.80;1.00
318;DHT22;146;53.448;10.228;2022-08-03T03:13:31;19.80;1.00
318;DHT22;146;53.448;10.228;2022-08-03T03:16:00;19.80;1.00
318;DHT22;146;53.448;10.228;2022-08-03T03:18:28;19.70;1.00
318;DHT22;146;53.448;10.228;2022-08-03T03:20:57;19.70;1.00
318;DHT22;146;53.448;10.228;2022-08-03T03:23:25;19.70;1.00
318;DHT22;146;53.448;10.228;2022-08-03T03:25:54;19.70;1.00
318;DHT22;146;53.448;10.228;2022-08-03T03:28:24;19.70;1.00
318;DHT22;146;53.448;10.228;2022-08-03T03:30:51;19.60;1.00
318;DHT22;146;53.448;10.228;2022-08-03T03:33:18;19.60;1.00
318;DHT22;146;53.448;10.228;2022-08-03T03:35:46;19.60;1.00
318;DHT22;146;53.448;10.228;2022-08-03T03:38:13;19.60;1.00
318;DHT22;146;53.448;10.228;2022-08-03T03:40:40;19.60;1.00
318;DHT22;146;53.448;10.228;2022-08-03T03:43:07;19.50;1.00
318;DHT22;146;53.448;10.228;2022-08-03T03:45:36;19.50;1.00
318;DHT22;146;53.448;10.228;2022-08-03T03:48:04;19.60;1.00
318;DHT22;146;53.448;10.228;2022-08-03T03:50:32;19.50;1.00
318;DHT22;146;53.448;10.228;2022-08-03T03:53:00;19.60;1.00
318;DHT22;146;53.448;10.228;2022-08-03T03:55:27;19.50;1.00
318;DHT22;146;53.448;10.228;2022-08-03T03:57:54;19.50;1.00
318;DHT22;146;53.448;10.228;2022-08-03T04:00:21;19.60;1.00
318;DHT22;146;53.448;10.228;2022-08-03T04:02:49;19.50;1.00
318;DHT22;146;53.448;10.228;2022-08-03T04:05:16;19.60;1.00
318;DHT22;146;53.448;10.228;2022-08-03T04:08:03;19.50;1.00
318;DHT22;146;53.448;10.228;2022-08-03T04:10:55;19.50;1.00
318;DHT22;146;53.448;10.228;2022-08-03T04:13:31;19.50;1.10
318;DHT22;146;53.448;10.228;2022-08-03T04:15:59;19.60;1.40
318;DHT22;146;53.448;10.228;2022-08-03T04:18:30;19.70;1.30
318;DHT22;146;53.448;10.228;2022-08-03T04:21:00;19.70;1.10
318;DHT22;146;53.448;10.228;2022-08-03T04:23:30;19.70;1.00
318;DHT22;146;53.448;10.228;2022-08-03T04:26:01;19.70;1.00
318;DHT22;146;53.448;10.228;2022-08-03T04:28:29;19.70;1.00
318;DHT22;146;53.448;10.228;2022-08-03T04:30:57;19.70;1.00
318;DHT22;146;53.448;10.228;2022-08-03T04:33:25;19.70;1.00
318;DHT22;146;53.448;10.228;2022-08-03T04:35:56;19.70;1.00
318;DHT22;146;53.448;10.228;2022-08-03T04:38:24;19.70;1.00
318;DHT22;146;53.448;10.228;2022-08-03T04:40:53;19.80;1.00
318;DHT22;146;53.448;10.228;2022-08-03T04:43:21;19.80;1.00
318;DHT22;146;53.448;10.228;2022-08-03T04:45:49;19.80;1.10
318;DHT22;146;53.448;10.228;2022-08-03T04:48:16;19.90;1.00
318;DHT22;146;53.448;10.228;2022-08-03T04:50:45;19.90;1.00
318;DHT22;146;53.448;10.228;2022-08-03T04:53:13;19.90;1.00
318;DHT22;146;53.448;10.228;2022-08-03T04:55:42;19.90;1.00
318;DHT22;146;53.448;10.228;2022-08-03T04:58:08;19.90;1.00
318;DHT22;146;53.448;10.228;2022-08-03T05:00:37;19.90;1.00
318;DHT22;146;53.448;10.228;2022-08-03T05:03:03;19.90;1.00
318;DHT22;146;53.448;10.228;2022-08-03T05:05:30;19.90;1.00
318;DHT22;146;53.448;10.228;2022-08-03T05:07:57;19.90;1.00
318;DHT22;146;53.448;10.228;2022-08-03T05:10:25;19.90;1.00
318;DHT22;146;53.448;10.228;2022-08-03T05:12:52;19.90;1.00
318;DHT22;146;53.448;10.228;2022-08-03T05:15:19;19.90;1.00
318;DHT22;146;53.448;10.228;2022-08-03T05:17:46;19.90;1.10
318;DHT22;146;53.448;10.228;2022-08-03T05:20:13;19.90;1.10
318;DHT22;146;53.448;10.228;2022-08-03T05:22:40;19.90;1.10
318;DHT22;146;53.448;10.228;2022-08-03T05:25:07;19.90;1.20
318;DHT22;146;53.448;10.228;2022-08-03T05:27:35;19.90;1.30
318;DHT22;146;53.448;10.228;2022-08-03T05:30:03;20.00;1.40
318;DHT22;146;53.448;10.228;2022-08-03T05:32:29;20.00;1.40
318;DHT22;146;53.448;10.228;2022-08-03T05:34:56;20.00;1.40
318;DHT22;146;53.448;10.228;2022-08-03T05:37:23;20.00;1.50
318;DHT22;146;53.448;10.228;2022-08-03T05:39:50;20.00;1.60
318;DHT22;146;53.448;10.228;2022-08-03T05:42:17;20.00;1.70
318;DHT22;146;53.448;10.228;2022-08-03T05:44:45;20.00;1.80
318;DHT22;146;53.448;10.228;2022-08-03T05:47:12;20.00;1.70
318;DHT22;146;53.448;10.228;2022-08-03T05:49:39;20.00;1.60
318;DHT22;146;53.448;10.228;2022-08-03T05:52:05;20.00;1.50
318;DHT22;146;53.448;10.228;2022-08-03T05:54:32;20.10;1.60
318;DHT22;146;53.448;10.228;2022-08-03T05:56:59;20.20;1.30
318;DHT22;146;53.448;10.228;2022-08-03T05:59:29;20.20;1.10
318;DHT22;146;53.448;10.228;2022-08-03T06:01:57;20.20;1.00
318;DHT22;146;53.448;10.228;2022-08-03T06:04:24;20.30;1.00
318;DHT22;146;53.448;10.228;2022-08-03T06:06:50;20.30;1.00
318;DHT22;146;53.448;10.228;2022-08-03T06:09:17;20.40;1.00
318;DHT22;146;53.448;10.228;2022-08-03T06:11:44;20.40;1.00
318;DHT22;146;53.448;10.228;2022-08-03T06:14:11;20.50;1.00
318;DHT22;146;53.448;10.228;2022-08-03T06:16:37;20.50;1.00
318;DHT22;146;53.448;10.228;2022-08-03T06:19:05;20.50;1.00
318;DHT22;146;53.448;10.228;2022-08-03T06:21:33;20.60;1.00
318;DHT22;146;53.448;10.228;2022-08-03T06:23:59;20.60;1.00
318;DHT22;146;53.448;10.228;2022-08-03T06:26:26;20.60;1.00
318;DHT22;146;53.448;10.228;2022-08-03T06:28:55;20.70;1.00
318;DHT22;146;53.448;10.228;2022-08-03T06:31:23;20.80;1.00
318;DHT22;146;53.448;10.228;2022-08-03T06:33:50;20.90;1.00
318;DHT22;146;53.448;10.228;2022-08-03T06:36:18;21.00;1.00
318;DHT22;146;53.448;10.228;2022-08-03T06:38:45;21.10;1.00
318;DHT22;146;53.448;10.228;2022-08-03T06:41:12;21.20;1.00
318;DHT22;146;53.448;10.228;2022-08-03T06:43:39;21.20;1.00
318;DHT22;146;53.448;10.228;2022-08-03T06:46:06;21.20;1.00
318;DHT22;146;53.448;10.228;2022-08-03T06:48:33;21.30;1.00
318;DHT22;146;53.448;10.228;2022-08-03T06:51:00;21.30;1.00
318;DHT22;146;53.448;10.228;2022-08-03T06:53:28;21.40;1.00
318;DHT22;146;53.448;10.228;2022-08-03T06:55:55;21.40;1.00
318;DHT22;146;53.448;10.228;2022-08-03T06:58:22;21.50;1.00
318;DHT22;146;53.448;10.228;2022-08-03T07:00:48;21.60;1.00
318;DHT22;146;53.448;10.228;2022-08-03T07:03:15;21.70;1.00
318;DHT22;146;53.448;10.228;2022-08-03T07:05:42;21.70;1.00
318;DHT22;146;53.448;10.228;2022-08-03T07:08:11;21.80;1.00
318;DHT22;146;53.448;10.228;2022-08-03T07:10:39;21.80;1.00
318;DHT22;146;53.448;10.228;2022-08-03T07:13:06;21.90;1.00
318;DHT22;146;53.448;10.228;2022-08-03T07:15:34;22.00;1.00
318;DHT22;146;53.448;10.228;2022-08-03T07:18:01;22.10;1.00
318;DHT22;146;53.448;10.228;2022-08-03T07:20:28;22.20;1.00
318;DHT22;146;53.448;10.228;2022-08-03T07:22:55;22.30;1.00
318;DHT22;146;53.448;10.228;2022-08-03T07:25:21;22.40;1.00
318;DHT22;146;53.448;10.228;2022-08-03T07:27:50;22.40;1.00
318;DHT22;146;53.448;10.228;2022-08-03T07:30:17;22.50;1.00
318;DHT22;146;53.448;10.228;2022-08-03T07:32:44;22.60;1.00
318;DHT22;146;53.448;10.228;2022-08-03T07:35:10;22.60;1.00
318;DHT22;146;53.448;10.228;2022-08-03T07:37:37;22.80;1.00
318;DHT22;146;53.448;10.228;2022-08-03T07:40:05;22.90;1.00
318;DHT22;146;53.448;10.228;2022-08-03T07:42:32;23.00;1.00
318;DHT22;146;53.448;10.228;2022-08-03T07:45:00;23.10;1.00
318;DHT22;146;53.448;10.228;2022-08-03T07:47:30;23.30;1.00
318;DHT22;146;53.448;10.228;2022-08-03T07:49:57;23.50;1.00
318;DHT22;146;53.448;10.228;2022-08-03T07:52:24;23.60;1.00
318;DHT22;146;53.448;10.228;2022-08-03T07:55:08;23.70;1.00
318;DHT22;146;53.448;10.228;2022-08-03T07:57:36;23.80;1.00
318;DHT22;146;53.448;10.228;2022-08-03T08:00:07;23.90;1.00
318;DHT22;146;53.448;10.228;2022-08-03T08:02:37;23.80;1.00
318;DHT22;146;53.448;10.228;2022-08-03T08:05:05;23.90;1.00
318;DHT22;146;53.448;10.228;2022-08-03T08:07:32;24.10;1.00
318;DHT22;146;53.448;10.228;2022-08-03T08:09:58;24.20;1.00
318;DHT22;146;53.448;10.228;2022-08-03T08:12:25;24.20;1.00
318;DHT22;146;53.448;10.228;2022-08-03T08:14:52;24.40;1.00
318;DHT22;146;53.448;10.228;2022-08-03T08:17:20;24.50;1.00
318;DHT22;146;53.448;10.228;2022-08-03T08:19:47;24.60;1.00
318;DHT22;146;53.448;10.228;2022-08-03T08:22:14;24.70;1.00
318;DHT22;146;53.448;10.228;2022-08-03T08:24:40;24.80;1.00
318;DHT22;146;53.448;10.228;2022-08-03T08:27:09;25.00;1.00
318;DHT22;146;53.448;10.228;2022-08-03T08:29:36;25.00;1.00
318;DHT22;146;53.448;10.228;2022-08-03T08:32:04;25.10;1.00
318;DHT22;146;53.448;10.228;2022-08-03T08:34:32;25.10;1.00
318;DHT22;146;53.448;10.228;2022-08-03T08:36:59;25.10;1.00
318;DHT22;146;53.448;10.228;2022-08-03T08:39:26;25.20;1.00
318;DHT22;146;53.448;10.228;2022-08-03T08:41:53;25.20;1.00
318;DHT22;146;53.448;10.228;2022-08-03T08:44:20;25.20;1.00
318;DHT22;146;53.448;10.228;2022-08-03T08:46:47;25.30;1.00
318;DHT22;146;53.448;10.228;2022-08-03T08:49:16;25.40;1.00
318;DHT22;146;53.448;10.228;2022-08-03T08:51:46;25.60;1.00
318;DHT22;146;53.448;10.228;2022-08-03T08:54:16;25.60;1.00
318;DHT22;146;53.448;10.228;2022-08-03T08:56:43;25.80;1.00
318;DHT22;146;53.448;10.228;2022-08-03T08:59:10;25.80;1.00
318;DHT22;146;53.448;10.228;2022-08-03T09:01:38;25.80;1.00
318;DHT22;146;53.448;10.228;2022-08-03T09:04:05;25.80;1.00
318;DHT22;146;53.448;10.228;2022-08-03T09:06:34;25.90;1.00
318;DHT22;146;53.448;10.228;2022-08-03T09:09:02;26.00;1.00
318;DHT22;146;53.448;10.228;2022-08-03T09:11:31;26.00;1.00
318;DHT22;146;53.448;10.228;2022-08-03T09:14:00;26.10;1.00
318;DHT22;146;53.448;10.228;2022-08-03T09:16:27;26.20;1.00
318;DHT22;146;53.448;10.228;2022-08-03T09:18:54;26.20;1.00
318;DHT22;146;53.448;10.228;2022-08-03T09:21:22;26.40;1.00
318;DHT22;146;53.448;10.228;2022-08-03T09:23:51;26.60;1.00
318;DHT22;146;53.448;10.228;2022-08-03T09:26:22;26.70;1.00
318;DHT22;146;53.448;10.228;2022-08-03T09:28:57;26.90;1.00
318;DHT22;146;53.448;10.228;2022-08-03T09:31:31;27.00;1.00
318;DHT22;146;53.448;10.228;2022-08-03T09:34:04;27.10;1.00
318;DHT22;146;53.448;10.228;2022-08-03T09:36:39;27.20;1.00
318;DHT22;146;53.448;10.228;2022-08-03T09:39:08;27.10;1.00
318;DHT22;146;53.448;10.228;2022-08-03T09:41:38;27.20;1.00
318;DHT22;146;53.448;10.228;2022-08-03T09:44:06;27.20;1.00
318;DHT22;146;53.448;10.228;2022-08-03T09:46:47;27.20;1.00
318;DHT22;146;53.448;10.228;2022-08-03T09:49:14;27.30;1.00
318;DHT22;146;53.448;10.228;2022-08-03T09:51:42;27.30;1.00
318;DHT22;146;53.448;10.228;2022-08-03T09:54:09;27.40;1.00
318;DHT22;146;53.448;10.228;2022-08-03T09:56:43;27.40;1.00
318;DHT22;146;53.448;10.228;2022-08-03T09:59:12;27.40;1.00
318;DHT22;146;53.448;10.228;2022-08-03T10:01:39;27.50;1.00
318;DHT22;146;53.448;10.228;2022-08-03T10:04:11;27.40;1.00
318;DHT22;146;53.448;10.228;2022-08-03T10:06:39;27.40;1.00
318;DHT22;146;53.448;10.228;2022-08-03T10:09:08;27.40;1.00
318;DHT22;146;53.448;10.228;2022-08-03T10:11:36;27.50;1.00
318;DHT22;146;53.448;10.228;2022-08-03T10:14:07;27.50;1.00
318;DHT22;146;53.448;10.228;2022-08-03T10:16:36;27.50;1.00
318;DHT22;146;53.448;10.228;2022-08-03T10:19:04;27.60;1.00
318;DHT22;146;53.448;10.228;2022-08-03T10:21:35;27.60;1.00
318;DHT22;146;53.448;10.228;2022-08-03T10:24:04;27.60;1.00
318;DHT22;146;53.448;10.228;2022-08-03T10:26:33;27.60;1.00
318;DHT22;146;53.448;10.228;2022-08-03T10:29:03;27.60;1.00
318;DHT22;146;53.448;10.228;2022-08-03T10:31:37;27.70;1.00
318;DHT22;146;53.448;10.228;2022-08-03T10:34:25;27.70;1.00
318;DHT22;146;53.448;10.228;2022-08-03T10:36:55;27.70;1.00
318;DHT22;146;53.448;10.228;2022-08-03T10:39:35;27.80;1.00
318;DHT22;146;53.448;10.228;2022-08-03T10:42:02;27.70;1.00
318;DHT22;146;53.448;10.228;2022-08-03T10:44:32;27.70;1.00
318;DHT22;146;53.448;10.228;2022-08-03T10:47:04;27.70;1.00
318;DHT22;146;53.448;10.228;2022-08-03T10:49:31;27.80;1.00
318;DHT22;146;53.448;10.228;2022-08-03T10:51:58;27.80;1.00
318;DHT22;146;53.448;10.228;2022-08-03T10:54:39;27.90;1.00
318;DHT22;146;53.448;10.228;2022-08-03T10:57:50;27.90;1.00
318;DHT22;146;53.448;10.228;2022-08-03T11:00:19;28.00;1.00
318;DHT22;146;53.448;10.228;2022-08-03T11:03:05;28.00;1.00
318;DHT22;146;53.448;10.228;2022-08-03T11:05:34;28.00;1.00
318;DHT22;146;53.448;10.228;2022-08-03T11:08:23;28.10;1.00
318;DHT22;146;53.448;10.228;2022-08-03T11:10:51;28.10;1.00
318;DHT22;146;53.448;10.228;2022-08-03T11:13:20;28.20;1.00
318;DHT22;146;53.448;10.228;2022-08-03T11:15:52;28.20;1.00
318;DHT22;146;53.448;10.228;2022-08-03T11:18:23;28.30;1.00
318;DHT22;146;53.448;10.228;2022-08-03T11:20:51;28.40;1.00
318;DHT22;146;53.448;10.228;2022-08-03T11:23:38;28.50;1.00
318;DHT22;146;53.448;10.228;2022-08-03T11:26:13;28.50;1.00
318;DHT22;146;53.448;10.228;2022-08-03T11:28:42;28.60;1.00
318;DHT22;146;53.448;10.228;2022-08-03T11:34:14;28.70;1.00
318;DHT22;146;53.448;10.228;2022-08-03T11:39:47;28.80;1.00
318;DHT22;146;53.448;10.228;2022-08-03T11:42:40;28.80;1.00
318;DHT22;146;53.448;10.228;2022-08-03T11:45:08;28.70;1.00
318;DHT22;146;53.448;10.228;2022-08-03T11:47:37;28.90;1.00
318;DHT22;146;53.448;10.228;2022-08-03T11:50:07;28.90;1.00
318;DHT22;146;53.448;10.228;2022-08-03T11:52:36;28.90;1.00
318;DHT22;146;53.448;10.228;2022-08-03T11:55:12;28.90;1.00
318;DHT22;146;53.448;10.228;2022-08-03T11:57:39;28.90;1.00
318;DHT22;146;53.448;10.228;2022-08-03T12:00:22;28.90;1.00
318;DHT22;146;53.448;10.228;2022-08-03T12:03:00;29.00;1.00
318;DHT22;146;53.448;10.228;2022-08-03T12:05:37;29.10;1.00
318;DHT22;146;53.448;10.228;2022-08-03T12:08:09;29.10;1.00
318;DHT22;146;53.448;10.228;2022-08-03T12:10:37;29.10;1.00
318;DHT22;146;53.448;10.228;2022-08-03T12:13:08;29.20;1.00
318;DHT22;146;53.448;10.228;2022-08-03T12:15:36;29.20;1.00
318;DHT22;146;53.448;10.228;2022-08-03T12:18:13;29.30;1.00
318;DHT22;146;53.448;10.228;2022-08-03T12:20:44;29.30;1.00
318;DHT22;146;53.448;10.228;2022-08-03T12:23:12;29.40;1.00
318;DHT22;146;53.448;10.228;2022-08-03T12:25:43;29.40;1.00
318;DHT22;146;53.448;10.228;2022-08-03T12:28:18;29.50;1.00
318;DHT22;146;53.448;10.228;2022-08-03T12:30:48;29.40;1.00
318;DHT22;146;53.448;10.228;2022-08-03T12:33:18;29.40;1.00
318;DHT22;146;53.448;10.228;2022-08-03T12:36:01;29.50;1.00
318;DHT22;146;53.448;10.228;2022-08-03T12:38:30;29.60;1.00
318;DHT22;146;53.448;10.228;2022-08-03T12:40:59;29.60;1.00
318;DHT22;146;53.448;10.228;2022-08-03T12:43:27;29.60;1.00
318;DHT22;146;53.448;10.228;2022-08-03T12:46:12;29.60;1.00
318;DHT22;146;53.448;10.228;2022-08-03T12:49:07;29.60;1.00
318;DHT22;146;53.448;10.228;2022-08-03T12:51:40;29.70;1.00
318;DHT22;146;53.448;10.228;2022-08-03T12:54:22;29.70;1.00
318;DHT22;146;53.448;10.228;2022-08-03T12:57:00;29.70;1.00
318;DHT22;146;53.448;10.228;2022-08-03T12:59:29;29.70;1.00
318;DHT22;146;53.448;10.228;2022-08-03T13:01:57;29.70;1.00
318;DHT22;146;53.448;10.228;2022-08-03T13:04:25;29.70;1.00
318;DHT22;146;53.448;10.228;2022-08-03T13:06:59;29.70;1.00
318;DHT22;146;53.448;10.228;2022-08-03T13:09:26;29.70;1.00
318;DHT22;146;53.448;10.228;2022-08-03T13:12:07;29.70;1.00
318;DHT22;146;53.448;10.228;2022-08-03T13:14:35;29.70;1.00
318;DHT22;146;53.448;10.228;2022-08-03T13:17:03;29.70;1.00
318;DHT22;146;53.448;10.228;2022-08-03T13:19:30;29.80;1.00
318;DHT22;146;53.448;10.228;2022-08-03T13:21:59;29.80;1.00
318;DHT22;146;53.448;10.228;2022-08-03T13:24:27;29.80;1.00
318;DHT22;146;53.448;10.228;2022-08-03T13:26:53;29.90;1.00
318;DHT22;146;53.448;10.228;2022-08-03T13:29:20;30.00;1.00
318;DHT22;146;53.448;10.228;2022-08-03T13:31:47;30.00;1.00
318;DHT22;146;53.448;10.228;2022-08-03T13:34:14;30.10;1.00
318;DHT22;146;53.448;10.228;2022-08-03T13:36:41;30.20;1.00
318;DHT22;146;53.448;10.228;2022-08-03T13:39:09;30.30;1.00
318;DHT22;146;53.448;10.228;2022-08-03T13:41:36;30.40;1.00
318;DHT22;146;53.448;10.228;2022-08-03T13:44:03;30.40;1.00
318;DHT22;146;53.448;10.228;2022-08-03T13:46:30;30.30;1.00
318;DHT22;146;53.448;10.228;2022-08-03T13:48:57;30.40;1.00
318;DHT22;146;53.448;10.228;2022-08-03T13:51:23;30.40;1.00
318;DHT22;146;53.448;10.228;2022-08-03T13:53:50;30.50;1.00
318;DHT22;146;53.448;10.228;2022-08-03T13:56:19;30.50;1.00
318;DHT22;146;53.448;10.228;2022-08-03T13:58:48;30.50;1.00
318;DHT22;146;53.448;10.228;2022-08-03T14:01:15;30.60;1.00
318;DHT22;146;53.448;10.228;2022-08-03T14:03:42;30.50;1.00
318;DHT22;146;53.448;10.228;2022-08-03T14:06:09;30.40;1.00
318;DHT22;146;53.448;10.228;2022-08-03T14:08:35;30.40;1.00
318;DHT22;146;53.448;10.228;2022-08-03T14:11:02;30.40;1.00
318;DHT22;146;53.448;10.228;2022-08-03T14:13:30;30.40;1.00
318;DHT22;146;53.448;10.228;2022-08-03T14:15:57;30.40;1.00
318;DHT22;146;53.448;10.228;2022-08-03T14:18:27;30.50;1.00
318;DHT22;146;53.448;10.228;2022-08-03T14:20:54;30.40;1.00
318;DHT22;146;53.448;10.228;2022-08-03T14:23:21;30.40;1.00
318;DHT22;146;53.448;10.228;2022-08-03T14:25:48;30.50;1.00
318;DHT22;146;53.448;10.228;2022-08-03T14:28:15;30.50;1.00
318;DHT22;146;53.448;10.228;2022-08-03T14:30:43;30.40;1.00
318;DHT22;146;53.448;10.228;2022-08-03T14:33:09;30.60;1.00
318;DHT22;146;53.448;10.228;2022-08-03T14:35:36;30.60;1.00
318;DHT22;146;53.448;10.228;2022-08-03T14:38:03;30.50;1.00
318;DHT22;146;53.448;10.228;2022-08-03T14:40:30;30.50;1.00
318;DHT22;146;53.448;10.228;2022-08-03T14:42:56;30.50;1.00
318;DHT22;146;53.448;10.228;2022-08-03T14:45:23;30.50;1.00
318;DHT22;146;53.448;10.228;2022-08-03T14:51:20;30.40;1.00
318;DHT22;146;53.448;10.228;2022-08-03T14:53:46;30.40;1.00
318;DHT22;146;53.448;10.228;2022-08-03T14:56:13;30.40;1.00
318;DHT22;146;53.448;10.228;2022-08-03T14:58:40;30.40;1.00
318;DHT22;146;53.448;10.228;2022-08-03T15:01:07;30.30;1.00
318;DHT22;146;53.448;10.228;2022-08-03T15:03:34;30.50;1.00
318;DHT22;146;53.448;10.228;2022-08-03T15:06:01;30.40;1.00
318;DHT22;146;53.448;10.228;2022-08-03T15:08:29;30.50;1.00
318;DHT22;146;53.448;10.228;2022-08-03T15:10:59;30.50;1.00
318;DHT22;146;53.448;10.228;2022-08-03T15:13:25;30.50;1.00
318;DHT22;146;53.448;10.228;2022-08-03T15:15:53;30.60;1.00
318;DHT22;146;53.448;10.228;2022-08-03T15:18:19;30.60;1.00
318;DHT22;146;53.448;10.228;2022-08-03T15:20:46;30.80;1.00
318;DHT22;146;53.448;10.228;2022-08-03T15:23:15;30.80;1.00
318;DHT22;146;53.448;10.228;2022-08-03T15:25:44;30.90;1.00
318;DHT22;146;53.448;10.228;2022-08-03T15:28:11;30.90;1.00
318;DHT22;146;53.448;10.228;2022-08-03T15:30:41;30.80;1.00
318;DHT22;146;53.448;10.228;2022-08-03T15:33:08;30.90;1.00
318;DHT22;146;53.448;10.228;2022-08-03T15:35:34;30.90;1.00
318;DHT22;146;53.448;10.228;2022-08-03T15:38:01;30.80;1.00
318;DHT22;146;53.448;10.228;2022-08-03T15:40:28;30.80;1.00
318;DHT22;146;53.448;10.228;2022-08-03T15:43:04;30.90;1.00
318;DHT22;146;53.448;10.228;2022-08-03T15:45:31;30.90;1.00
318;DHT22;146;53.448;10.228;2022-08-03T15:47:58;30.90;1.00
318;DHT22;146;53.448;10.228;2022-08-03T15:50:25;30.90;1.00
318;DHT22;146;53.448;10.228;2022-08-03T15:52:54;30.90;1.00
318;DHT22;146;53.448;10.228;2022-08-03T15:55:21;30.90;1.00
318;DHT22;146;53.448;10.228;2022-08-03T15:57:48;30.90;1.00
318;DHT22;146;53.448;10.228;2022-08-03T16:00:17;30.90;1.00
318;DHT22;146;53.448;10.228;2022-08-03T16:02:43;30.90;1.00
318;DHT22;146;53.448;10.228;2022-08-03T16:05:10;31.00;1.00
318;DHT22;146;53.448;10.228;2022-08-03T16:07:37;31.00;1.00
318;DHT22;146;53.448;10.228;2022-08-03T16:10:12;31.00;1.00
318;DHT22;146;53.448;10.228;2022-08-03T16:12:39;31.00;1.00
318;DHT22;146;53.448;10.228;2022-08-03T16:15:07;31.00;1.00
318;DHT22;146;53.448;10.228;2022-08-03T16:17:35;31.00;1.00
318;DHT22;146;53.448;10.228;2022-08-03T16:20:02;31.00;1.00
318;DHT22;146;53.448;10.228;2022-08-03T16:22:30;31.00;1.00
318;DHT22;146;53.448;10.228;2022-08-03T16:24:58;30.90;1.00
318;DHT22;146;53.448;10.228;2022-08-03T16:27:25;30.90;1.00
318;DHT22;146;53.448;10.228;2022-08-03T16:29:55;30.80;1.00
318;DHT22;146;53.448;10.228;2022-08-03T16:32:22;30.80;1.00
318;DHT22;146;53.448;10.228;2022-08-03T16:34:50;30.90;1.00
318;DHT22;146;53.448;10.228;2022-08-03T16:37:16;30.70;1.00
318;DHT22;146;53.448;10.228;2022-08-03T16:39:43;30.60;1.00
318;DHT22;146;53.448;10.228;2022-08-03T16:42:10;30.60;1.00
318;DHT22;146;53.448;10.228;2022-08-03T16:44:37;30.60;1.00
318;DHT22;146;53.448;10.228;2022-08-03T16:47:03;30.50;1.00
318;DHT22;146;53.448;10.228;2022-08-03T16:49:30;30.60;1.00
318;DHT22;146;53.448;10.228;2022-08-03T16:51:58;30.60;1.00
318;DHT22;146;53.448;10.228;2022-08-03T16:54:25;30.70;1.00
318;DHT22;146;53.448;10.228;2022-08-03T16:56:52;30.70;1.00
318;DHT22;146;53.448;10.228;2022-08-03T16:59:19;30.80;1.00